Time;durP1;ratioP1;P1;durP2;ratioP2;P2;SDS_P1;SDS_P2;PMS_P1;PMS_P2;Temp;Humidity;BMP_temperature;BMP_pressure;BME280_temperature;BME280_humidity;BME280_pressure;Samples;Min_cycle;Max_cycle;Signal;HPM_P1;HPM_P2
2022/03/30 00:01:25;;;;;;;36.72;15.80;;;;;;;;;;4992324;28;20077;-68
2022/03/30 00:03:51;;;;;;;35.03;17.60;;;;;;;;;;4992194;28;20057;-68
2022/03/30 00:06:17;;;;;;;27.55;15.80;;;;;;;;;;4990837;28;20414;-67
2022/03/30 00:08:43;;;;;;;30.08;16.23;;;;;;;;;;4984329;28;20556;-68
2022/03/30 00:11:10;;;;;;;29.27;16.58;;;;;;;;;;4968214;28;20508;-68
2022/03/30 00:13:37;;;;;;;29.75;16.85;;;;;;;;;;4992331;28;20077;-68
2022/03/30 00:16:07;;;;;;;32.00;17.35;;;;;;;;;;4984895;28;20065;-68
2022/03/30 00:18:33;;;;;;;33.00;17.40;;;;;;;;;;4979065;28;20040;-68
2022/03/30 00:20:59;;;;;;;33.95;17.90;;;;;;;;;;4980781;28;20078;-68
2022/03/30 00:23:25;;;;;;;29.88;17.67;;;;;;;;;;4964856;28;20493;-68
2022/03/30 00:25:51;;;;;;;36.17;19.40;;;;;;;;;;4979842;28;20738;-68
2022/03/30 00:28:17;;;;;;;31.15;18.60;;;;;;;;;;4986355;28;20074;-68
2022/03/30 00:30:43;;;;;;;36.50;19.02;;;;;;;;;;4987918;28;20038;-68
2022/03/30 00:33:10;;;;;;;36.67;17.67;;;;;;;;;;4986827;28;20070;-68
2022/03/30 00:35:36;;;;;;;34.80;19.75;;;;;;;;;;4972705;28;20046;-68
2022/03/30 00:38:03;;;;;;;37.15;18.65;;;;;;;;;;4976598;28;20055;-68
2022/03/30 00:40:29;;;;;;;34.15;18.23;;;;;;;;;;4993225;28;20524;-68
2022/03/30 00:42:56;;;;;;;26.75;16.85;;;;;;;;;;4986900;28;20050;-68
2022/03/30 00:45:23;;;;;;;34.83;18.10;;;;;;;;;;4990970;28;20050;-68
2022/03/30 00:47:49;;;;;;;34.58;17.38;;;;;;;;;;4991117;28;20038;-68
2022/03/30 00:50:17;;;;;;;33.85;17.90;;;;;;;;;;4991612;28;20536;-68
2022/03/30 00:52:44;;;;;;;35.35;18.05;;;;;;;;;;4983719;28;20137;-68
2022/03/30 00:55:10;;;;;;;31.88;17.98;;;;;;;;;;4988547;28;20049;-66
2022/03/30 00:57:37;;;;;;;33.05;19.40;;;;;;;;;;4983693;28;20050;-67
2022/03/30 01:00:08;;;;;;;33.28;18.58;;;;;;;;;;4990472;28;20058;-67
2022/03/30 01:02:37;;;;;;;35.10;18.25;;;;;;;;;;4967381;28;20046;-67
2022/03/30 01:05:03;;;;;;;30.85;18.20;;;;;;;;;;4990949;28;20042;-67
2022/03/30 01:07:29;;;;;;;31.55;17.70;;;;;;;;;;4984817;28;20042;-68
2022/03/30 01:09:55;;;;;;;31.52;18.13;;;;;;;;;;4990353;28;20038;-67
2022/03/30 01:12:21;;;;;;;31.23;18.13;;;;;;;;;;4985579;28;20069;-68
2022/03/30 01:14:47;;;;;;;30.83;17.83;;;;;;;;;;4988887;28;20047;-68
2022/03/30 01:17:14;;;;;;;33.55;18.08;;;;;;;;;;4984086;28;20093;-68
2022/03/30 01:19:40;;;;;;;34.28;18.38;;;;;;;;;;4984603;28;20047;-68
2022/03/30 01:22:07;;;;;;;34.55;18.13;;;;;;;;;;4981252;28;20413;-67
2022/03/30 01:24:34;;;;;;;32.58;18.15;;;;;;;;;;4990756;28;20051;-67
2022/03/30 01:27:00;;;;;;;30.48;17.88;;;;;;;;;;4986458;28;20464;-68
2022/03/30 01:32:27;;;;;;;32.83;18.58;;;;;;;;;;4987008;28;20053;-68
2022/03/30 01:35:00;;;;;;;31.95;17.17;;;;;;;;;;4993911;28;20053;-68
2022/03/30 01:37:28;;;;;;;33.08;17.05;;;;;;;;;;4989050;28;20038;-67
2022/03/30 01:39:55;;;;;;;27.48;17.48;;;;;;;;;;4990302;28;20075;-68
2022/03/30 01:42:21;;;;;;;34.15;18.27;;;;;;;;;;4978002;28;20047;-68
2022/03/30 01:44:47;;;;;;;30.98;17.38;;;;;;;;;;4991367;28;20134;-68
2022/03/30 01:47:13;;;;;;;31.25;17.90;;;;;;;;;;4967204;28;20049;-68
2022/03/30 01:49:40;;;;;;;36.58;18.15;;;;;;;;;;4987844;28;20042;-68
2022/03/30 01:52:07;;;;;;;33.97;17.80;;;;;;;;;;4983418;28;20379;-68
2022/03/30 01:54:36;;;;;;;33.50;17.77;;;;;;;;;;4977329;28;20438;-68
2022/03/30 01:57:02;;;;;;;32.75;17.38;;;;;;;;;;4985360;28;20470;-68
2022/03/30 01:59:28;;;;;;;31.45;18.05;;;;;;;;;;4994269;28;20038;-68
2022/03/30 02:01:54;;;;;;;34.28;16.90;;;;;;;;;;4979514;28;20520;-68
2022/03/30 02:04:20;;;;;;;35.28;18.23;;;;;;;;;;4994800;28;20097;-68
2022/03/30 02:06:46;;;;;;;32.95;17.67;;;;;;;;;;4964290;28;20490;-68
2022/03/30 02:09:14;;;;;;;32.05;17.60;;;;;;;;;;4990383;28;20046;-68
2022/03/30 02:11:40;;;;;;;35.17;18.17;;;;;;;;;;4990924;28;20060;-67
2022/03/30 02:14:06;;;;;;;31.65;17.23;;;;;;;;;;4977332;28;20109;-68
2022/03/30 02:16:32;;;;;;;31.42;17.02;;;;;;;;;;4987247;28;20038;-68
2022/03/30 02:18:58;;;;;;;32.85;17.15;;;;;;;;;;4994099;28;20117;-67
2022/03/30 02:21:24;;;;;;;30.92;17.27;;;;;;;;;;4990322;28;20055;-67
2022/03/30 02:23:51;;;;;;;33.58;18.45;;;;;;;;;;4992368;28;20043;-67
2022/03/30 02:26:17;;;;;;;33.25;18.13;;;;;;;;;;4976772;28;20490;-67
2022/03/30 02:28:44;;;;;;;30.75;18.17;;;;;;;;;;4963116;28;20042;-68
2022/03/30 02:31:11;;;;;;;32.97;17.65;;;;;;;;;;4990946;28;20050;-68
2022/03/30 02:33:37;;;;;;;31.63;18.30;;;;;;;;;;4993700;28;20038;-68
2022/03/30 02:36:04;;;;;;;36.78;18.30;;;;;;;;;;4985298;28;20048;-68
2022/03/30 02:38:30;;;;;;;29.00;16.10;;;;;;;;;;4984704;28;20484;-68
2022/03/30 02:40:56;;;;;;;32.95;17.15;;;;;;;;;;4987297;28;20062;-68
2022/03/30 02:43:22;;;;;;;31.20;16.17;;;;;;;;;;4975758;28;20058;-68
2022/03/30 02:45:48;;;;;;;33.83;17.88;;;;;;;;;;4992021;28;20100;-68
2022/03/30 02:48:17;;;;;;;31.40;17.15;;;;;;;;;;4993625;28;20421;-68
2022/03/30 02:50:45;;;;;;;39.97;17.10;;;;;;;;;;4993572;28;20505;-67
2022/03/30 02:53:11;;;;;;;33.85;16.77;;;;;;;;;;4983497;28;20058;-67
2022/03/30 02:55:37;;;;;;;35.63;17.52;;;;;;;;;;4983914;28;20085;-67
2022/03/30 02:58:04;;;;;;;34.05;17.45;;;;;;;;;;4981216;28;20491;-67
2022/03/30 03:00:30;;;;;;;27.70;17.17;;;;;;;;;;4993942;28;20401;-67
2022/03/30 03:02:56;;;;;;;32.90;16.17;;;;;;;;;;4982987;28;20070;-67
2022/03/30 03:05:22;;;;;;;30.52;16.33;;;;;;;;;;4977381;28;20507;-67
2022/03/30 03:07:48;;;;;;;34.90;17.40;;;;;;;;;;4958860;28;20051;-68
2022/03/30 03:10:15;;;;;;;32.80;16.75;;;;;;;;;;4991244;28;20097;-68
2022/03/30 03:12:41;;;;;;;37.78;17.23;;;;;;;;;;4969036;28;20145;-68
2022/03/30 03:15:07;;;;;;;36.47;17.30;;;;;;;;;;4974770;28;20050;-68
2022/03/30 03:17:33;;;;;;;33.17;16.75;;;;;;;;;;4987621;28;20057;-68
2022/03/30 03:19:59;;;;;;;32.30;16.50;;;;;;;;;;4993550;28;20413;-69
2022/03/30 03:22:25;;;;;;;31.95;17.02;;;;;;;;;;4987581;28;20046;-68
2022/03/30 03:24:51;;;;;;;28.42;16.25;;;;;;;;;;4991609;28;20125;-69
2022/03/30 03:27:17;;;;;;;34.35;16.73;;;;;;;;;;4980602;28;20062;-69
2022/03/30 03:29:44;;;;;;;29.58;16.00;;;;;;;;;;4979118;28;20090;-68
2022/03/30 03:32:10;;;;;;;31.48;17.65;;;;;;;;;;4977770;28;20057;-68
2022/03/30 03:34:36;;;;;;;32.25;18.10;;;;;;;;;;4983916;28;20039;-69
2022/03/30 03:37:02;;;;;;;32.97;18.02;;;;;;;;;;4991863;28;20197;-68
2022/03/30 03:39:28;;;;;;;34.10;19.05;;;;;;;;;;4973274;28;20053;-68
2022/03/30 03:41:54;;;;;;;31.98;18.05;;;;;;;;;;4988823;28;20062;-68
2022/03/30 03:44:20;;;;;;;29.92;18.20;;;;;;;;;;4988233;28;20121;-68
2022/03/30 03:46:46;;;;;;;36.30;19.20;;;;;;;;;;4981437;28;20046;-68
2022/03/30 03:49:12;;;;;;;37.55;18.05;;;;;;;;;;4985775;28;20129;-68
2022/03/30 03:51:38;;;;;;;33.40;18.17;;;;;;;;;;4974859;28;20134;-68
2022/03/30 03:54:04;;;;;;;41.42;19.58;;;;;;;;;;4973638;28;20072;-68
2022/03/30 03:56:30;;;;;;;40.67;18.83;;;;;;;;;;4993925;28;20486;-68
2022/03/30 03:58:56;;;;;;;34.75;19.33;;;;;;;;;;4987047;28;20038;-68
2022/03/30 04:01:22;;;;;;;35.83;19.20;;;;;;;;;;4975176;28;20050;-69
2022/03/30 04:03:48;;;;;;;37.97;20.73;;;;;;;;;;4979920;28;20046;-68
2022/03/30 04:06:15;;;;;;;34.30;21.30;;;;;;;;;;4993713;28;20057;-68
2022/03/30 04:08:41;;;;;;;37.00;21.25;;;;;;;;;;4989925;28;20053;-68
2022/03/30 04:11:07;;;;;;;35.63;20.25;;;;;;;;;;4978118;28;20038;-68
2022/03/30 04:13:33;;;;;;;38.22;21.73;;;;;;;;;;4989104;28;20537;-68
2022/03/30 04:15:59;;;;;;;40.35;21.48;;;;;;;;;;4993759;28;20054;-68
2022/03/30 04:18:25;;;;;;;39.67;21.92;;;;;;;;;;4979788;28;20498;-67
2022/03/30 04:20:51;;;;;;;42.97;22.13;;;;;;;;;;4940570;28;20050;-68
2022/03/30 04:23:17;;;;;;;40.88;22.60;;;;;;;;;;4977550;28;20445;-68
2022/03/30 04:25:43;;;;;;;45.20;24.00;;;;;;;;;;4976763;28;20926;-68
2022/03/30 04:28:09;;;;;;;41.92;22.58;;;;;;;;;;4990360;28;20073;-68
2022/03/30 04:30:35;;;;;;;37.45;22.13;;;;;;;;;;4977573;28;20046;-68
2022/03/30 04:33:01;;;;;;;41.92;23.92;;;;;;;;;;4980130;28;20497;-68
2022/03/30 04:35:27;;;;;;;43.20;23.88;;;;;;;;;;4990442;28;20070;-69
2022/03/30 04:37:54;;;;;;;43.63;24.20;;;;;;;;;;4989513;28;20046;-68
2022/03/30 04:40:22;;;;;;;47.72;25.42;;;;;;;;;;4984374;28;20061;-67
2022/03/30 04:42:48;;;;;;;39.53;23.10;;;;;;;;;;4991240;28;20505;-68
2022/03/30 04:45:14;;;;;;;44.03;24.90;;;;;;;;;;4991961;28;20134;-69
2022/03/30 04:47:40;;;;;;;48.50;23.45;;;;;;;;;;4978819;28;20046;-68
2022/03/30 04:50:06;;;;;;;47.72;24.27;;;;;;;;;;4975349;28;20560;-68
2022/03/30 04:52:32;;;;;;;45.30;23.58;;;;;;;;;;4981298;28;20066;-69
2022/03/30 04:54:58;;;;;;;44.20;23.52;;;;;;;;;;4995883;28;20046;-69
2022/03/30 04:57:24;;;;;;;40.45;22.17;;;;;;;;;;4989086;28;20096;-67
2022/03/30 04:59:50;;;;;;;41.28;22.92;;;;;;;;;;4985572;28;20508;-68
2022/03/30 05:02:16;;;;;;;39.35;22.83;;;;;;;;;;4979746;28;21250;-68
2022/03/30 05:04:43;;;;;;;41.20;20.90;;;;;;;;;;4994471;28;20074;-70
2022/03/30 05:07:09;;;;;;;36.90;19.88;;;;;;;;;;4986482;28;20481;-68
2022/03/30 05:09:35;;;;;;;44.58;20.20;;;;;;;;;;4983185;28;20047;-67
2022/03/30 05:12:02;;;;;;;36.40;19.80;;;;;;;;;;4987699;28;20057;-68
2022/03/30 05:14:28;;;;;;;35.08;18.50;;;;;;;;;;4994381;28;20413;-68
2022/03/30 05:16:54;;;;;;;36.45;18.92;;;;;;;;;;4983744;28;20038;-68
2022/03/30 05:19:20;;;;;;;31.92;17.58;;;;;;;;;;4995954;28;20054;-68
2022/03/30 05:21:46;;;;;;;34.67;17.30;;;;;;;;;;4990268;28;20133;-68
2022/03/30 05:24:12;;;;;;;29.40;16.70;;;;;;;;;;4994852;28;20097;-69
2022/03/30 05:26:38;;;;;;;34.42;16.50;;;;;;;;;;4964986;28;20075;-68
2022/03/30 05:29:05;;;;;;;32.38;15.52;;;;;;;;;;4984960;28;20126;-68
2022/03/30 05:31:31;;;;;;;24.52;12.63;;;;;;;;;;4991315;28;20043;-68
2022/03/30 05:33:57;;;;;;;18.08;9.77;;;;;;;;;;4994334;28;20096;-68
2022/03/30 05:36:23;;;;;;;13.98;6.88;;;;;;;;;;4945190;28;20105;-68
2022/03/30 05:38:50;;;;;;;12.10;6.43;;;;;;;;;;4977170;28;20043;-68
2022/03/30 05:41:17;;;;;;;10.07;5.25;;;;;;;;;;4994876;28;20133;-68
2022/03/30 05:43:43;;;;;;;9.40;4.50;;;;;;;;;;4985365;28;20514;-68
2022/03/30 05:46:09;;;;;;;7.57;4.03;;;;;;;;;;4991103;28;20039;-68
2022/03/30 05:48:35;;;;;;;6.95;3.13;;;;;;;;;;4993965;28;20046;-68
2022/03/30 05:51:01;;;;;;;7.20;3.47;;;;;;;;;;4977338;28;20383;-67
2022/03/30 05:53:27;;;;;;;6.82;3.50;;;;;;;;;;4986859;28;20185;-68
2022/03/30 05:55:55;;;;;;;7.25;3.40;;;;;;;;;;4987528;28;20050;-68
2022/03/30 05:58:21;;;;;;;5.93;2.88;;;;;;;;;;4968399;28;20047;-68
2022/03/30 06:00:48;;;;;;;7.40;2.65;;;;;;;;;;4994604;28;20046;-68
2022/03/30 06:03:14;;;;;;;4.70;2.53;;;;;;;;;;4993518;28;20140;-67
2022/03/30 06:05:40;;;;;;;4.57;2.35;;;;;;;;;;4995927;28;20126;-67
2022/03/30 06:08:07;;;;;;;5.28;2.85;;;;;;;;;;4988200;28;20550;-67
2022/03/30 06:10:33;;;;;;;5.60;2.78;;;;;;;;;;4983878;28;20422;-67
2022/03/30 06:12:59;;;;;;;5.93;2.60;;;;;;;;;;4990933;28;20141;-67
2022/03/30 06:15:26;;;;;;;4.85;2.38;;;;;;;;;;4966359;28;20043;-67
2022/03/30 06:17:53;;;;;;;5.68;2.08;;;;;;;;;;4986526;28;20122;-68
2022/03/30 06:20:19;;;;;;;5.18;2.15;;;;;;;;;;4993957;28;20046;-68
2022/03/30 06:22:45;;;;;;;3.97;1.83;;;;;;;;;;4982419;28;20038;-68
2022/03/30 06:25:11;;;;;;;3.72;1.50;;;;;;;;;;4984672;28;20053;-68
2022/03/30 06:27:38;;;;;;;3.88;1.70;;;;;;;;;;4993312;28;20047;-68
2022/03/30 06:30:05;;;;;;;4.53;1.70;;;;;;;;;;4994515;28;20050;-68
2022/03/30 06:32:31;;;;;;;2.90;1.33;;;;;;;;;;4980043;28;20126;-68
2022/03/30 06:34:58;;;;;;;2.42;1.20;;;;;;;;;;4958696;28;20062;-67
2022/03/30 06:37:24;;;;;;;3.58;1.50;;;;;;;;;;4979283;28;20042;-68
2022/03/30 06:39:51;;;;;;;3.40;1.33;;;;;;;;;;4992539;28;20449;-69
2022/03/30 06:42:17;;;;;;;4.53;1.50;;;;;;;;;;4979022;28;20058;-68
2022/03/30 06:44:43;;;;;;;3.33;1.30;;;;;;;;;;4983616;28;20093;-68
2022/03/30 06:47:09;;;;;;;3.40;1.60;;;;;;;;;;4979708;28;20050;-68
2022/03/30 06:49:37;;;;;;;3.50;1.65;;;;;;;;;;4988039;28;20046;-68
2022/03/30 06:52:03;;;;;;;4.53;2.00;;;;;;;;;;4978939;28;20055;-66
2022/03/30 06:54:29;;;;;;;4.20;1.63;;;;;;;;;;4971548;28;20071;-66
2022/03/30 06:56:55;;;;;;;4.60;1.80;;;;;;;;;;4981837;28;20046;-67
2022/03/30 06:59:21;;;;;;;5.32;1.95;;;;;;;;;;4967111;28;20375;-67
2022/03/30 07:01:47;;;;;;;4.40;2.20;;;;;;;;;;4989317;28;20050;-67
2022/03/30 07:04:13;;;;;;;5.70;2.70;;;;;;;;;;4960541;28;20051;-67
2022/03/30 07:10:14;;;;;;;5.07;2.83;;;;;;;;;;4975226;28;20082;-67
2022/03/30 07:12:10;;;;;;;5.47;3.55;;;;;;;;;;4979420;28;20414;-67
2022/03/30 07:14:36;;;;;;;4.40;2.40;;;;;;;;;;4993600;28;20052;-67
2022/03/30 07:17:02;;;;;;;5.38;3.10;;;;;;;;;;4994525;28;20057;-68
2022/03/30 07:19:28;;;;;;;5.75;2.30;;;;;;;;;;4986815;28;20051;-67
2022/03/30 07:21:54;;;;;;;3.97;1.75;;;;;;;;;;4975150;28;20569;-67
2022/03/30 07:24:20;;;;;;;3.53;1.40;;;;;;;;;;4986965;28;20039;-67
2022/03/30 07:26:46;;;;;;;3.05;1.27;;;;;;;;;;4976277;28;20049;-67
2022/03/30 07:29:12;;;;;;;2.65;1.30;;;;;;;;;;4993915;28;20074;-67
2022/03/30 07:31:38;;;;;;;4.15;1.48;;;;;;;;;;4987421;28;20462;-67
2022/03/30 07:34:04;;;;;;;4.68;2.15;;;;;;;;;;4974834;28;20126;-67
2022/03/30 07:36:31;;;;;;;4.63;2.50;;;;;;;;;;4985100;28;20058;-67
2022/03/30 07:38:56;;;;;;;5.38;2.47;;;;;;;;;;4994188;28;20042;-68
2022/03/30 07:41:23;;;;;;;4.95;2.40;;;;;;;;;;4984856;28;20425;-67
2022/03/30 07:43:49;;;;;;;4.10;1.98;;;;;;;;;;4986742;28;20054;-66
2022/03/30 07:46:15;;;;;;;4.78;2.00;;;;;;;;;;4972003;28;20042;-67
2022/03/30 07:48:41;;;;;;;3.17;1.35;;;;;;;;;;4976610;28;20049;-66
2022/03/30 07:51:07;;;;;;;3.42;1.35;;;;;;;;;;4988890;28;20122;-72
2022/03/30 07:53:33;;;;;;;5.20;1.38;;;;;;;;;;4982815;28;20523;-68
2022/03/30 07:55:59;;;;;;;3.75;1.45;;;;;;;;;;4984342;28;20047;-68
2022/03/30 07:58:26;;;;;;;5.80;1.33;;;;;;;;;;4989030;28;20043;-68
2022/03/30 08:00:52;;;;;;;6.22;1.10;;;;;;;;;;4992972;28;20046;-68
2022/03/30 08:03:18;;;;;;;3.10;0.82;;;;;;;;;;4976176;28;20039;-68
2022/03/30 08:05:44;;;;;;;4.88;1.00;;;;;;;;;;4981347;28;20034;-68
2022/03/30 08:08:10;;;;;;;3.83;0.80;;;;;;;;;;4966846;28;20038;-68
2022/03/30 08:10:37;;;;;;;3.88;1.00;;;;;;;;;;4965036;28;20056;-68
2022/03/30 08:13:04;;;;;;;2.15;0.77;;;;;;;;;;4990622;28;20042;-68
2022/03/30 08:15:30;;;;;;;2.15;0.77;;;;;;;;;;4986954;28;20058;-68
2022/03/30 08:17:56;;;;;;;3.80;1.00;;;;;;;;;;4993584;28;20424;-68
2022/03/30 08:23:08;;;;;;;4.45;0.95;;;;;;;;;;4979538;28;20042;-68
2022/03/30 08:25:35;;;;;;;4.75;0.98;;;;;;;;;;4992641;28;20457;-68
2022/03/30 08:28:01;;;;;;;4.28;1.05;;;;;;;;;;4963890;28;20108;-68
2022/03/30 08:30:27;;;;;;;4.15;1.02;;;;;;;;;;4974101;28;20057;-68
2022/03/30 08:32:54;;;;;;;3.78;1.13;;;;;;;;;;4965499;28;20061;-68
2022/03/30 08:35:21;;;;;;;4.57;1.00;;;;;;;;;;4984594;28;20061;-67
2022/03/30 08:37:47;;;;;;;6.13;1.30;;;;;;;;;;4988931;28;20042;-67
2022/03/30 08:40:13;;;;;;;4.63;1.20;;;;;;;;;;4990365;28;20050;-67
2022/03/30 08:42:40;;;;;;;5.38;1.20;;;;;;;;;;4978126;28;20043;-68
2022/03/30 08:45:07;;;;;;;5.55;1.70;;;;;;;;;;4985527;28;20405;-68
2022/03/30 08:47:34;;;;;;;2.42;0.98;;;;;;;;;;4987864;28;20073;-68
2022/03/30 08:50:00;;;;;;;3.58;0.90;;;;;;;;;;4971554;28;20042;-68
2022/03/30 08:52:26;;;;;;;4.18;1.15;;;;;;;;;;4991892;28;20034;-68
2022/03/30 08:54:52;;;;;;;4.30;1.13;;;;;;;;;;4991779;28;20054;-68
2022/03/30 08:57:19;;;;;;;3.53;1.00;;;;;;;;;;4974256;28;20074;-68
2022/03/30 08:59:58;;;;;;;5.32;1.30;;;;;;;;;;4992169;28;20523;-68
2022/03/30 09:02:33;;;;;;;7.28;1.55;;;;;;;;;;4992365;28;20122;-68
2022/03/30 09:05:19;;;;;;;6.15;1.15;;;;;;;;;;4986796;28;20045;-68
2022/03/30 09:07:48;;;;;;;4.78;1.10;;;;;;;;;;4988747;28;20576;-68
2022/03/30 09:10:21;;;;;;;5.10;1.38;;;;;;;;;;4989434;28;20042;-68
2022/03/30 09:12:48;;;;;;;4.20;1.10;;;;;;;;;;4989780;28;20046;-67
2022/03/30 09:15:15;;;;;;;4.88;1.38;;;;;;;;;;4974928;28;20138;-68
2022/03/30 09:17:42;;;;;;;5.85;1.70;;;;;;;;;;4984427;28;20505;-68
2022/03/30 09:20:12;;;;;;;4.32;1.42;;;;;;;;;;4988483;28;20054;-67
2022/03/30 09:22:42;;;;;;;10.27;1.73;;;;;;;;;;4958921;28;20062;-68
2022/03/30 09:25:08;;;;;;;5.30;1.40;;;;;;;;;;4986375;28;20046;-68
2022/03/30 09:27:39;;;;;;;5.95;1.50;;;;;;;;;;4991139;28;20054;-68
2022/03/30 09:30:06;;;;;;;5.85;1.30;;;;;;;;;;4982499;28;20043;-67
2022/03/30 09:32:32;;;;;;;7.68;1.40;;;;;;;;;;4991109;28;20502;-68
2022/03/30 09:34:59;;;;;;;4.60;1.27;;;;;;;;;;4982969;28;20096;-68
2022/03/30 09:37:25;;;;;;;6.60;1.60;;;;;;;;;;4990530;28;20038;-68
2022/03/30 09:39:51;;;;;;;5.97;1.30;;;;;;;;;;4986762;28;21205;-68
2022/03/30 09:42:18;;;;;;;5.85;1.50;;;;;;;;;;4988002;28;20043;-68
2022/03/30 09:44:48;;;;;;;6.43;1.33;;;;;;;;;;4986575;28;20047;-68
2022/03/30 09:47:14;;;;;;;5.30;1.45;;;;;;;;;;4989148;28;20051;-68
2022/03/30 09:49:45;;;;;;;5.97;1.40;;;;;;;;;;4983739;28;20089;-67
2022/03/30 09:52:17;;;;;;;7.18;1.45;;;;;;;;;;4995676;28;20142;-68
2022/03/30 09:54:49;;;;;;;6.72;1.40;;;;;;;;;;4993150;28;20051;-68
2022/03/30 09:57:25;;;;;;;6.72;1.33;;;;;;;;;;4988837;28;20070;-68
2022/03/30 09:59:55;;;;;;;4.85;1.20;;;;;;;;;;4987158;28;20509;-68
2022/03/30 10:02:21;;;;;;;3.90;1.23;;;;;;;;;;4965971;28;20119;-67
2022/03/30 10:04:48;;;;;;;5.45;1.40;;;;;;;;;;4979058;28;20046;-68
2022/03/30 10:07:14;;;;;;;5.20;1.30;;;;;;;;;;4995924;28;20046;-68
2022/03/30 10:09:42;;;;;;;6.55;1.50;;;;;;;;;;4992484;28;20042;-68
2022/03/30 10:12:08;;;;;;;4.93;1.38;;;;;;;;;;4983185;28;20050;-68
2022/03/30 10:14:35;;;;;;;4.75;1.27;;;;;;;;;;4962295;28;20100;-67
2022/03/30 10:17:01;;;;;;;4.22;1.42;;;;;;;;;;4994579;28;20050;-68
2022/03/30 10:19:28;;;;;;;3.90;1.17;;;;;;;;;;4988866;28;20065;-68
2022/03/30 10:22:13;;;;;;;4.25;1.23;;;;;;;;;;4978445;28;20061;-68
2022/03/30 10:24:39;;;;;;;6.95;1.50;;;;;;;;;;4958804;28;20057;-68
2022/03/30 10:27:26;;;;;;;5.78;1.35;;;;;;;;;;4989471;28;20043;-67
2022/03/30 10:29:53;;;;;;;4.30;1.20;;;;;;;;;;4982643;28;20050;-71
2022/03/30 10:32:21;;;;;;;7.75;1.13;;;;;;;;;;4992052;28;20093;-67
2022/03/30 10:35:06;;;;;;;4.57;1.10;;;;;;;;;;4984518;28;20492;-67
2022/03/30 10:37:40;;;;;;;3.92;1.20;;;;;;;;;;4992944;28;20104;-68
2022/03/30 10:40:08;;;;;;;4.72;1.00;;;;;;;;;;4988866;28;20130;-68
2022/03/30 10:42:49;;;;;;;4.57;1.15;;;;;;;;;;4982544;28;20508;-69
2022/03/30 10:45:34;;;;;;;2.97;1.00;;;;;;;;;;4987010;28;20046;-69
2022/03/30 10:48:05;;;;;;;4.28;1.10;;;;;;;;;;4982901;28;20058;-69
2022/03/30 10:50:35;;;;;;;3.13;1.08;;;;;;;;;;4992229;28;20034;-69
2022/03/30 10:53:02;;;;;;;5.32;1.10;;;;;;;;;;4987800;28;20060;-69
2022/03/30 10:55:31;;;;;;;5.10;1.13;;;;;;;;;;4980887;28;20073;-69
2022/03/30 10:57:58;;;;;;;3.70;1.27;;;;;;;;;;4991179;28;20057;-68
2022/03/30 11:00:29;;;;;;;4.85;1.30;;;;;;;;;;4983837;28;20082;-69
2022/03/30 11:03:09;;;;;;;4.70;1.20;;;;;;;;;;4988308;28;20093;-68
2022/03/30 11:05:35;;;;;;;5.60;1.40;;;;;;;;;;4988125;28;20061;-68
2022/03/30 11:08:02;;;;;;;4.10;1.65;;;;;;;;;;4963856;28;20107;-69
2022/03/30 11:10:29;;;;;;;2.85;1.00;;;;;;;;;;4963839;28;20054;-68
2022/03/30 11:13:03;;;;;;;4.95;1.13;;;;;;;;;;4983636;28;20046;-69
2022/03/30 11:15:31;;;;;;;5.07;1.10;;;;;;;;;;4977075;28;20082;-68
2022/03/30 11:18:18;;;;;;;3.92;1.05;;;;;;;;;;4974361;28;20042;-68
2022/03/30 11:21:04;;;;;;;2.40;0.90;;;;;;;;;;4992851;28;20130;-68
2022/03/30 11:23:30;;;;;;;1.85;0.80;;;;;;;;;;4978771;28;20057;-68
2022/03/30 11:25:56;;;;;;;2.90;1.00;;;;;;;;;;4978135;28;20042;-69
2022/03/30 11:28:43;;;;;;;2.53;0.80;;;;;;;;;;4977119;28;20062;-66
2022/03/30 11:31:22;;;;;;;4.07;1.00;;;;;;;;;;4989779;28;20078;-65
2022/03/30 11:34:06;;;;;;;3.50;0.70;;;;;;;;;;4986163;28;20042;-67
2022/03/30 11:36:33;;;;;;;2.97;0.90;;;;;;;;;;4983430;28;20038;-67
2022/03/30 11:39:01;;;;;;;3.03;0.70;;;;;;;;;;4981965;28;20097;-67
2022/03/30 11:41:27;;;;;;;4.63;1.17;;;;;;;;;;4974676;28;20051;-67
2022/03/30 11:46:38;;;;;;;3.65;0.90;;;;;;;;;;4974814;28;20050;-68
2022/03/30 11:49:05;;;;;;;4.88;0.90;;;;;;;;;;4977819;28;20043;-67
2022/03/30 11:51:32;;;;;;;4.30;0.70;;;;;;;;;;4974664;28;20055;-68
2022/03/30 11:54:17;;;;;;;5.93;1.08;;;;;;;;;;4988000;28;20050;-68
2022/03/30 11:56:44;;;;;;;3.38;0.90;;;;;;;;;;4967061;28;20043;-67
2022/03/30 11:59:10;;;;;;;3.28;0.80;;;;;;;;;;4974679;28;20051;-67
2022/03/30 12:01:37;;;;;;;5.63;0.98;;;;;;;;;;4974427;28;20059;-67
2022/03/30 12:04:04;;;;;;;3.85;0.80;;;;;;;;;;4974638;28;20049;-67
2022/03/30 12:06:30;;;;;;;5.22;0.90;;;;;;;;;;4941447;28;20047;-67
2022/03/30 12:09:00;;;;;;;3.10;1.00;;;;;;;;;;4974489;28;20078;-67
2022/03/30 12:11:29;;;;;;;4.63;1.10;;;;;;;;;;4957774;28;20043;-67
2022/03/30 12:13:56;;;;;;;5.97;1.00;;;;;;;;;;4991161;28;20042;-67
2022/03/30 12:16:23;;;;;;;3.60;0.82;;;;;;;;;;4993563;28;20486;-68
2022/03/30 12:18:53;;;;;;;3.80;0.80;;;;;;;;;;4994118;28;20405;-67
2022/03/30 12:21:20;;;;;;;4.45;0.85;;;;;;;;;;4993733;28;20065;-68
2022/03/30 12:23:54;;;;;;;4.18;0.80;;;;;;;;;;4960180;28;20105;-68
2022/03/30 12:26:20;;;;;;;5.45;1.20;;;;;;;;;;4990445;28;20046;-68
2022/03/30 12:28:46;;;;;;;4.72;1.20;;;;;;;;;;4978819;28;20393;-67
2022/03/30 12:31:14;;;;;;;4.22;1.00;;;;;;;;;;4993362;28;20129;-68
2022/03/30 12:33:47;;;;;;;4.55;1.02;;;;;;;;;;4975662;28;20050;-67
2022/03/30 12:36:14;;;;;;;7.88;1.30;;;;;;;;;;4974165;28;20042;-68
2022/03/30 12:38:40;;;;;;;4.80;1.20;;;;;;;;;;4973701;28;20512;-67
2022/03/30 12:41:07;;;;;;;6.68;1.15;;;;;;;;;;4991302;28;20403;-67
2022/03/30 12:43:33;;;;;;;8.63;1.45;;;;;;;;;;4993084;28;20073;-68
2022/03/30 12:46:01;;;;;;;3.35;1.00;;;;;;;;;;4992468;28;20050;-68
2022/03/30 12:48:28;;;;;;;4.03;1.00;;;;;;;;;;4993345;28;20121;-68
2022/03/30 12:50:58;;;;;;;5.60;1.20;;;;;;;;;;4980088;28;20086;-68
2022/03/30 12:53:29;;;;;;;5.07;1.10;;;;;;;;;;4973690;28;20043;-68
2022/03/30 12:55:55;;;;;;;;;;;;;;;;;;4976128;28;20114;-68
2022/03/30 12:58:26;;;;;;;4.22;1.05;;;;;;;;;;4974114;28;19933;-68
2022/03/30 13:00:54;;;;;;;3.88;1.08;;;;;;;;;;4992811;28;20054;-68
2022/03/30 13:03:28;;;;;;;3.67;1.23;;;;;;;;;;4979080;28;20039;-69
2022/03/30 13:06:07;;;;;;;5.25;1.15;;;;;;;;;;4993201;28;20050;-68
2022/03/30 13:08:33;;;;;;;5.50;1.20;;;;;;;;;;4992964;28;20053;-67
2022/03/30 13:11:00;;;;;;;5.68;1.33;;;;;;;;;;4992800;28;20053;-67
2022/03/30 13:13:46;;;;;;;4.82;1.25;;;;;;;;;;4981505;28;20054;-68
2022/03/30 13:16:17;;;;;;;7.03;1.40;;;;;;;;;;4964685;28;20050;-67
2022/03/30 13:18:43;;;;;;;5.30;1.50;;;;;;;;;;4979327;28;20669;-68
2022/03/30 13:21:10;;;;;;;6.07;1.20;;;;;;;;;;4960383;28;20142;-68
2022/03/30 13:23:45;;;;;;;6.32;1.35;;;;;;;;;;4992603;28;20406;-67
2022/03/30 13:26:31;;;;;;;4.82;1.40;;;;;;;;;;4990655;28;20053;-68
2022/03/30 13:29:00;;;;;;;6.38;1.33;;;;;;;;;;4960261;28;20051;-68
2022/03/30 13:31:26;;;;;;;6.80;1.67;;;;;;;;;;4960832;28;20047;-68
2022/03/30 13:33:54;;;;;;;4.47;1.02;;;;;;;;;;4996643;28;20073;-69
2022/03/30 13:36:20;;;;;;;5.90;1.38;;;;;;;;;;4996132;28;20104;-69
2022/03/30 13:38:48;;;;;;;5.68;1.50;;;;;;;;;;4995549;28;20122;-68
2022/03/30 13:41:15;;;;;;;4.57;1.45;;;;;;;;;;4988476;28;20043;-68
2022/03/30 13:43:41;;;;;;;5.82;2.10;;;;;;;;;;4988781;28;20051;-68
2022/03/30 13:46:07;;;;;;;5.32;2.05;;;;;;;;;;4965850;28;20667;-68
2022/03/30 13:48:33;;;;;;;6.15;1.73;;;;;;;;;;4994392;28;20046;-69
2022/03/30 13:51:00;;;;;;;4.95;2.10;;;;;;;;;;4996387;28;20047;-68
2022/03/30 13:53:30;;;;;;;5.35;1.90;;;;;;;;;;4995711;28;20112;-69
2022/03/30 13:55:57;;;;;;;7.38;2.17;;;;;;;;;;4978967;28;20055;-67
2022/03/30 13:58:23;;;;;;;6.43;2.45;;;;;;;;;;4986744;28;20054;-68
2022/03/30 14:00:50;;;;;;;6.13;1.88;;;;;;;;;;4996082;28;20571;-68
2022/03/30 14:03:16;;;;;;;6.10;1.83;;;;;;;;;;4971161;28;20042;-69
2022/03/30 14:05:42;;;;;;;5.63;2.00;;;;;;;;;;4976689;28;20082;-69
2022/03/30 14:08:08;;;;;;;5.75;1.95;;;;;;;;;;4976486;28;20047;-67
2022/03/30 14:10:34;;;;;;;7.53;2.13;;;;;;;;;;4983916;28;20465;-68
2022/03/30 14:13:00;;;;;;;4.85;1.85;;;;;;;;;;4969369;28;20045;-69
2022/03/30 14:15:27;;;;;;;7.72;2.20;;;;;;;;;;4982766;28;20137;-69
2022/03/30 14:17:53;;;;;;;8.60;2.80;;;;;;;;;;4981031;28;20042;-69
2022/03/30 14:20:19;;;;;;;6.30;1.98;;;;;;;;;;4985393;28;20070;-68
2022/03/30 14:22:47;;;;;;;6.63;2.05;;;;;;;;;;4975526;28;20518;-68
2022/03/30 14:25:14;;;;;;;4.68;1.90;;;;;;;;;;4985146;28;20049;-68
2022/03/30 14:27:40;;;;;;;5.97;1.77;;;;;;;;;;4987820;28;20053;-69
2022/03/30 14:30:07;;;;;;;6.40;1.75;;;;;;;;;;4976384;28;20046;-68
2022/03/30 14:32:33;;;;;;;5.85;2.08;;;;;;;;;;4989657;28;20058;-69
2022/03/30 14:35:01;;;;;;;5.55;2.20;;;;;;;;;;4993473;28;20038;-70
2022/03/30 14:37:28;;;;;;;6.57;2.10;;;;;;;;;;4975974;28;20049;-69
2022/03/30 14:39:54;;;;;;;4.35;1.88;;;;;;;;;;4959918;28;20410;-67
2022/03/30 14:42:20;;;;;;;5.55;1.80;;;;;;;;;;4975999;28;20101;-68
2022/03/30 14:44:47;;;;;;;4.15;1.63;;;;;;;;;;4976552;28;20461;-68
2022/03/30 14:47:13;;;;;;;5.38;1.48;;;;;;;;;;4967663;28;20054;-68